Time;durP1;ratioP1;P1;durP2;ratioP2;P2;SDS_P1;SDS_P2;PMS_P1;PMS_P2;Temp;Humidity;BMP_temperature;BMP_pressure;BME280_temperature;BME280_humidity;BME280_pressure;Samples;Min_cycle;Max_cycle;Signal;HPM_P1;HPM_P2
2022/12/18 00:02:20;;;;;;;;;;;;;;;8.48;61.24;101910.97;4928187;29;20301;-81
2022/12/18 00:05:04;;;;;;;;;;;;;;;8.25;61.77;101908.78;4928169;29;19919;-81
2022/12/18 00:07:49;;;;;;;;;;;;;;;8.46;60.71;101894.16;4951458;29;19918;-80
2022/12/18 00:10:33;;;;;;;;;;;;;;;8.29;61.23;101904.44;4965074;28;19919;-80
2022/12/18 00:13:18;;;;;;;;;;;;;;;8.04;61.40;101902.50;4962402;29;19918;-81
2022/12/18 00:16:03;;;;;;;;;;;;;;;8.35;61.60;101902.56;4951144;29;19918;-80
2022/12/18 00:18:49;;;;;;;;;;;;;;;8.36;61.45;101912.31;4946346;29;19922;-81
2022/12/18 00:21:33;;;;;;;;;;;;;;;8.24;61.71;101909.84;4950508;29;19919;-81
2022/12/18 00:24:18;;;;;;;;;;;;;;;8.13;62.38;101913.63;4947337;29;20324;-79
2022/12/18 00:27:03;;;;;;;;;;;;;;;8.27;62.38;101903.91;4946614;29;19919;-80
2022/12/18 00:29:47;;;;;;;;;;;;;;;8.26;62.08;101913.09;4949255;29;19926;-80
2022/12/18 00:32:32;;;;;;;;;;;;;;;8.41;62.21;101921.28;4954529;29;19919;-81
2022/12/18 00:35:17;;;;;;;;;;;;;;;8.23;62.79;101921.75;4945025;29;19922;-81
2022/12/18 00:38:01;;;;;;;;;;;;;;;7.32;65.62;101924.22;4951328;29;19922;-81
2022/12/18 00:40:46;;;;;;;;;;;;;;;7.26;65.95;101919.88;4941295;29;19918;-81
2022/12/18 00:43:30;;;;;;;;;;;;;;;6.82;67.78;101924.75;4946629;29;19918;-81
2022/12/18 00:46:18;;;;;;;;;;;;;;;6.99;67.66;101924.59;4948284;29;19919;-81
2022/12/18 00:49:03;;;;;;;;;;;;;;;7.19;67.32;101930.13;4948455;29;19919;-81
2022/12/18 00:51:47;;;;;;;;;;;;;;;6.98;67.81;101939.19;4945606;29;20308;-81
2022/12/18 00:54:32;;;;;;;;;;;;;;;7.44;66.05;101943.78;4954904;29;19918;-80
2022/12/18 00:57:16;;;;;;;;;;;;;;;6.89;68.02;101944.28;4953366;29;20350;-81
2022/12/18 01:00:02;;;;;;;;;;;;;;;7.37;66.97;101948.59;4946298;29;19923;-81
2022/12/18 01:02:47;;;;;;;;;;;;;;;7.02;68.10;101943.81;4947217;29;20109;-81
2022/12/18 01:05:32;;;;;;;;;;;;;;;8.01;64.28;101953.72;4946015;29;19919;-80
2022/12/18 01:08:16;;;;;;;;;;;;;;;8.10;64.11;101960.22;4947689;29;19922;-81
2022/12/18 01:11:07;;;;;;;;;;;;;;;8.10;64.18;101969.16;4945616;29;19919;-80
2022/12/18 01:13:53;;;;;;;;;;;;;;;8.00;64.14;101973.75;4950202;29;19923;-80
2022/12/18 01:16:40;;;;;;;;;;;;;;;8.02;63.47;101982.44;4961602;29;19919;-81
2022/12/18 01:19:24;;;;;;;;;;;;;;;8.23;62.81;101975.16;4956667;29;19922;-81
2022/12/18 01:22:09;;;;;;;;;;;;;;;8.36;62.60;101983.59;4950230;29;19923;-81
2022/12/18 01:24:53;;;;;;;;;;;;;;;7.44;65.31;101992.47;4937326;29;19927;-81
2022/12/18 01:27:40;;;;;;;;;;;;;;;7.89;64.00;102004.59;4949571;29;19919;-80
2022/12/18 01:30:25;;;;;;;;;;;;;;;8.11;63.08;102003.31;4964117;29;19918;-81
2022/12/18 01:33:10;;;;;;;;;;;;;;;7.73;64.60;102003.69;4980594;28;19919;-81
2022/12/18 01:35:55;;;;;;;;;;;;;;;8.22;63.45;102003.34;4957577;28;19919;-80
2022/12/18 01:38:39;;;;;;;;;;;;;;;8.18;63.34;102008.44;4952982;28;20412;-81
2022/12/18 01:41:25;;;;;;;;;;;;;;;7.77;64.40;102009.44;4954516;29;19919;-80
2022/12/18 01:44:29;;;;;;;;;;;;;;;7.72;65.40;102012.91;4954436;29;19923;-79
2022/12/18 01:47:20;;;;;;;;;;;;;;;8.08;64.13;102017.38;4958205;28;19919;-79
2022/12/18 01:50:06;;;;;;;;;;;;;;;8.29;63.85;102017.44;4947212;29;20384;-80
2022/12/18 01:52:53;;;;;;;;;;;;;;;8.45;63.23;102025.34;4966291;29;20295;-80
2022/12/18 01:55:50;;;;;;;;;;;;;;;8.63;62.75;102025.94;4929083;29;19919;-81
2022/12/18 01:58:58;;;;;;;;;;;;;;;8.35;64.17;102033.47;4939730;29;19926;-81
2022/12/18 02:01:43;;;;;;;;;;;;;;;7.99;65.73;102024.38;4958252;29;20307;-80
2022/12/18 02:04:28;;;;;;;;;;;;;;;8.18;65.76;102032.06;4951097;28;19923;-81
2022/12/18 02:07:24;;;;;;;;;;;;;;;8.43;64.83;102040.28;4953203;29;19919;-81
2022/12/18 02:10:36;;;;;;;;;;;;;;;8.45;65.10;102041.63;4956609;29;19919;-81
2022/12/18 02:13:50;;;;;;;;;;;;;;;8.57;64.82;102039.47;4940270;29;19919;-81
2022/12/18 02:17:00;;;;;;;;;;;;;;;8.42;65.90;102039.47;4953589;29;19919;-80
2022/12/18 02:19:53;;;;;;;;;;;;;;;8.29;66.06;102052.66;4953776;29;19923;-80
2022/12/18 02:22:37;;;;;;;;;;;;;;;8.36;66.14;102051.38;4958887;29;19923;-81
2022/12/18 02:25:23;;;;;;;;;;;;;;;8.01;67.44;102052.03;4949092;29;20384;-79
2022/12/18 02:28:11;;;;;;;;;;;;;;;7.95;68.46;102044.97;4958392;29;19922;-80
2022/12/18 02:30:59;;;;;;;;;;;;;;;8.10;67.30;102044.22;4944739;29;19923;-80
2022/12/18 02:33:44;;;;;;;;;;;;;;;7.27;70.66;102052.16;4951748;29;20030;-80
2022/12/18 02:36:31;;;;;;;;;;;;;;;7.82;70.13;102059.00;4950791;29;19923;-80
2022/12/18 02:39:17;;;;;;;;;;;;;;;8.33;67.89;102065.44;4949576;29;19923;-80
2022/12/18 02:42:16;;;;;;;;;;;;;;;8.45;67.28;102063.31;4952158;29;19919;-81
2022/12/18 02:45:01;;;;;;;;;;;;;;;8.46;67.22;102074.97;4957567;29;20376;-80
2022/12/18 02:47:48;;;;;;;;;;;;;;;8.50;67.14;102082.28;4961531;28;19918;-80
2022/12/18 02:50:32;;;;;;;;;;;;;;;8.72;66.15;102083.97;4959705;29;19919;-80
2022/12/18 02:53:22;;;;;;;;;;;;;;;8.72;66.34;102081.25;4955140;29;19918;-80
2022/12/18 02:56:06;;;;;;;;;;;;;;;8.70;66.03;102075.28;4951327;29;19919;-80
2022/12/18 02:59:11;;;;;;;;;;;;;;;8.69;66.32;102084.47;4950611;29;20311;-81
2022/12/18 03:02:06;;;;;;;;;;;;;;;8.78;65.83;102088.31;4953404;29;20296;-80
2022/12/18 03:05:09;;;;;;;;;;;;;;;8.80;65.91;102086.13;4953308;29;20391;-81
2022/12/18 03:07:55;;;;;;;;;;;;;;;8.79;65.65;102085.31;4962249;29;19919;-80
2022/12/18 03:10:49;;;;;;;;;;;;;;;8.83;65.13;102091.03;4948965;29;20376;-79
2022/12/18 03:13:39;;;;;;;;;;;;;;;8.80;64.63;102080.72;4956350;29;19918;-80
2022/12/18 03:16:26;;;;;;;;;;;;;;;8.81;64.70;102079.63;4948567;29;20328;-79
2022/12/18 03:19:14;;;;;;;;;;;;;;;8.85;64.05;102078.81;4946881;29;19923;-80
2022/12/18 03:22:02;;;;;;;;;;;;;;;8.76;64.30;102079.63;4948099;29;19918;-81
2022/12/18 03:24:53;;;;;;;;;;;;;;;8.80;64.11;102081.53;4953042;29;19922;-80
2022/12/18 03:27:42;;;;;;;;;;;;;;;8.58;65.33;102078.25;4966312;29;20396;-80
2022/12/18 03:30:30;;;;;;;;;;;;;;;8.24;66.67;102075.13;4953828;29;20336;-80
2022/12/18 03:33:19;;;;;;;;;;;;;;;8.02;68.11;102079.94;4952509;29;19919;-81
2022/12/18 03:36:06;;;;;;;;;;;;;;;8.14;67.44;102084.03;4950468;29;19919;-81
2022/12/18 03:38:51;;;;;;;;;;;;;;;8.28;66.70;102081.63;4950001;29;19922;-81
2022/12/18 03:41:39;;;;;;;;;;;;;;;8.36;66.39;102086.59;4953708;29;20396;-81
2022/12/18 03:44:51;;;;;;;;;;;;;;;8.40;64.80;102092.28;4950434;29;19918;-80
2022/12/18 03:47:55;;;;;;;;;;;;;;;8.47;64.32;102093.69;4953494;29;19919;-81
2022/12/18 03:50:49;;;;;;;;;;;;;;;8.53;64.23;102099.94;4951018;29;19919;-80
2022/12/18 03:53:39;;;;;;;;;;;;;;;8.58;63.68;102103.44;4949342;29;19918;-81
2022/12/18 03:56:27;;;;;;;;;;;;;;;8.49;64.46;102094.22;4950878;29;19919;-81
2022/12/18 03:59:14;;;;;;;;;;;;;;;8.66;63.51;102101.31;4951522;29;19922;-81
2022/12/18 04:02:01;;;;;;;;;;;;;;;8.53;63.72;102110.78;4954400;29;19919;-81
2022/12/18 04:04:47;;;;;;;;;;;;;;;8.43;64.11;102114.25;4953556;29;19918;-81
2022/12/18 04:07:33;;;;;;;;;;;;;;;8.61;64.08;102120.28;4948030;29;19919;-81
2022/12/18 04:10:18;;;;;;;;;;;;;;;8.45;64.77;102128.34;4950885;29;19923;-80
2022/12/18 04:13:03;;;;;;;;;;;;;;;8.52;64.05;102117.28;4938995;29;19919;-80
2022/12/18 04:15:47;;;;;;;;;;;;;;;8.52;64.21;102125.41;4951362;28;19922;-81
2022/12/18 04:18:33;;;;;;;;;;;;;;;8.57;63.34;102120.00;4956379;28;19923;-81
2022/12/18 04:21:20;;;;;;;;;;;;;;;8.58;62.90;102121.63;4951113;29;19919;-80
2022/12/18 04:24:06;;;;;;;;;;;;;;;8.65;62.61;102124.06;4937788;29;19919;-81
2022/12/18 04:26:52;;;;;;;;;;;;;;;8.42;63.43;102134.31;4930802;29;19923;-80
2022/12/18 04:29:43;;;;;;;;;;;;;;;8.23;64.14;102138.53;4943574;29;19918;-81
2022/12/18 04:32:28;;;;;;;;;;;;;;;8.26;64.53;102146.16;4961205;28;19923;-81
2022/12/18 04:35:12;;;;;;;;;;;;;;;8.20;64.71;102149.91;4961704;29;19919;-81
2022/12/18 04:38:02;;;;;;;;;;;;;;;8.34;64.94;102150.25;4945531;29;20576;-81
2022/12/18 04:40:47;;;;;;;;;;;;;;;8.27;65.06;102146.97;4931454;29;19923;-81
2022/12/18 04:43:39;;;;;;;;;;;;;;;8.30;65.10;102147.28;4930128;29;19919;-80
2022/12/18 04:46:25;;;;;;;;;;;;;;;8.37;65.05;102153.28;4930912;29;19919;-83
2022/12/18 04:49:13;;;;;;;;;;;;;;;8.60;63.84;102152.00;4930190;29;19919;-84
2022/12/18 04:51:58;;;;;;;;;;;;;;;7.95;65.47;102166.03;4951163;29;19927;-83
2022/12/18 04:54:43;;;;;;;;;;;;;;;8.20;65.21;102166.16;4952076;29;19919;-83
2022/12/18 04:57:27;;;;;;;;;;;;;;;8.42;63.87;102176.88;4959066;29;19919;-83
2022/12/18 05:00:12;;;;;;;;;;;;;;;7.97;65.18;102177.44;4938796;29;19923;-83
2022/12/18 05:02:57;;;;;;;;;;;;;;;8.36;64.15;102170.63;4950338;29;19923;-83
2022/12/18 05:05:41;;;;;;;;;;;;;;;8.48;63.58;102171.19;4951222;29;19945;-84
2022/12/18 05:08:26;;;;;;;;;;;;;;;8.55;62.91;102174.47;4949163;29;20415;-83
2022/12/18 05:11:13;;;;;;;;;;;;;;;8.29;64.13;102186.25;4950691;29;19927;-82
2022/12/18 05:13:58;;;;;;;;;;;;;;;8.39;63.33;102191.75;4948910;29;20324;-83
2022/12/18 05:16:42;;;;;;;;;;;;;;;8.46;63.30;102196.94;4948932;29;19919;-84
2022/12/18 05:19:27;;;;;;;;;;;;;;;8.58;62.86;102187.50;4958978;28;19923;-84
2022/12/18 05:22:11;;;;;;;;;;;;;;;8.57;62.48;102190.50;4949502;29;19930;-83
2022/12/18 05:24:56;;;;;;;;;;;;;;;8.50;62.45;102198.03;4958433;29;19919;-82
2022/12/18 05:27:40;;;;;;;;;;;;;;;8.63;62.46;102196.75;4958267;29;20399;-82
2022/12/18 05:30:25;;;;;;;;;;;;;;;8.49;62.71;102197.22;4970695;28;19922;-83
2022/12/18 05:33:10;;;;;;;;;;;;;;;8.48;63.37;102208.34;4954534;29;19919;-83
2022/12/18 05:35:56;;;;;;;;;;;;;;;8.11;64.99;102208.38;4955641;29;19918;-82
2022/12/18 05:38:40;;;;;;;;;;;;;;;8.17;64.80;102218.19;4959804;28;19923;-82
2022/12/18 05:41:24;;;;;;;;;;;;;;;8.32;64.04;102218.31;4952213;29;19919;-83
2022/12/18 05:44:09;;;;;;;;;;;;;;;8.30;63.92;102228.56;4952690;29;20380;-84
2022/12/18 05:46:53;;;;;;;;;;;;;;;8.32;63.35;102226.44;4958901;29;19919;-83
2022/12/18 05:49:38;;;;;;;;;;;;;;;8.42;63.17;102237.34;4964088;29;20526;-79
2022/12/18 05:52:23;;;;;;;;;;;;;;;8.30;63.61;102233.19;4947439;29;19922;-79
2022/12/18 05:55:07;;;;;;;;;;;;;;;8.18;64.30;102235.25;4964090;29;19918;-79
2022/12/18 05:57:52;;;;;;;;;;;;;;;8.13;64.23;102227.91;4970557;29;19918;-81
2022/12/18 06:00:39;;;;;;;;;;;;;;;8.15;64.11;102236.59;4967725;29;19922;-81
2022/12/18 06:03:24;;;;;;;;;;;;;;;8.25;64.06;102244.78;4959060;29;19923;-80
2022/12/18 06:06:17;;;;;;;;;;;;;;;8.33;63.01;102257.84;4960978;29;19918;-80
2022/12/18 06:09:08;;;;;;;;;;;;;;;8.33;62.77;102260.56;4960570;29;19918;-81
2022/12/18 06:11:52;;;;;;;;;;;;;;;8.22;62.95;102258.88;4965322;29;19918;-79
2022/12/18 06:14:36;;;;;;;;;;;;;;;8.05;64.44;102263.63;4963394;29;20455;-81
2022/12/18 06:17:21;;;;;;;;;;;;;;;7.69;65.88;102278.75;4966186;29;19923;-80
2022/12/18 06:20:06;;;;;;;;;;;;;;;7.96;65.06;102287.66;4968895;29;19922;-79
2022/12/18 06:22:52;;;;;;;;;;;;;;;8.12;64.04;102284.00;4957746;28;19919;-80
2022/12/18 06:25:39;;;;;;;;;;;;;;;8.10;63.56;102283.44;4955635;29;19919;-80
2022/12/18 06:28:24;;;;;;;;;;;;;;;8.04;62.95;102294.47;4951543;29;19923;-78
2022/12/18 06:31:09;;;;;;;;;;;;;;;8.11;62.70;102301.31;4958027;29;19918;-80
2022/12/18 06:33:53;;;;;;;;;;;;;;;8.14;62.58;102305.41;4962968;29;19922;-77
2022/12/18 06:36:38;;;;;;;;;;;;;;;8.08;62.81;102298.28;4959711;29;19919;-79
2022/12/18 06:39:22;;;;;;;;;;;;;;;8.02;63.35;102292.06;4949058;29;19923;-80
2022/12/18 06:42:06;;;;;;;;;;;;;;;8.01;63.38;102305.84;4951063;29;19919;-81
2022/12/18 06:44:51;;;;;;;;;;;;;;;8.05;63.19;102312.38;4954456;29;19919;-81
2022/12/18 06:47:36;;;;;;;;;;;;;;;8.01;63.62;102312.09;4967492;29;19919;-79
2022/12/18 06:50:20;;;;;;;;;;;;;;;8.05;63.52;102307.78;4969428;28;19918;-80
2022/12/18 06:53:05;;;;;;;;;;;;;;;7.90;64.14;102310.34;4970824;29;19918;-80
2022/12/18 06:55:49;;;;;;;;;;;;;;;7.92;63.63;102315.53;4959915;29;19922;-80
2022/12/18 06:58:33;;;;;;;;;;;;;;;7.99;63.43;102325.06;4963274;29;19918;-81
2022/12/18 07:01:18;;;;;;;;;;;;;;;8.00;63.43;102323.16;4964727;29;19922;-80
2022/12/18 07:04:02;;;;;;;;;;;;;;;8.01;63.20;102322.09;4971199;29;19918;-81
2022/12/18 07:06:47;;;;;;;;;;;;;;;8.07;63.18;102332.72;4945661;29;19919;-80
2022/12/18 07:09:31;;;;;;;;;;;;;;;8.13;63.01;102339.78;4952107;29;19919;-80
2022/12/18 07:12:16;;;;;;;;;;;;;;;8.17;62.96;102337.41;4952039;29;19919;-81
2022/12/18 07:15:00;;;;;;;;;;;;;;;8.11;62.88;102344.69;4951471;29;19918;-81
2022/12/18 07:17:45;;;;;;;;;;;;;;;8.18;63.19;102354.47;4956239;29;19922;-80
2022/12/18 07:20:29;;;;;;;;;;;;;;;8.03;63.84;102353.25;4962794;29;19923;-81
2022/12/18 07:23:14;;;;;;;;;;;;;;;7.94;64.96;102365.66;4977399;28;19941;-83
2022/12/18 07:26:06;;;;;;;;;;;;;;;7.24;65.62;102357.59;4969129;28;19918;-83
2022/12/18 07:28:54;;;;;;;;;;;;;;;6.82;67.29;102363.53;4963138;29;19918;-82
2022/12/18 07:31:38;;;;;;;;;;;;;;;6.39;68.36;102371.56;4966686;29;19918;-81
2022/12/18 07:34:23;;;;;;;;;;;;;;;5.89;70.60;102371.53;4964335;29;19918;-81
2022/12/18 07:37:08;;;;;;;;;;;;;;;5.49;72.78;102375.06;4957082;28;19919;-81
2022/12/18 07:39:52;;;;;;;;;;;;;;;5.06;75.58;102372.88;4938009;29;20408;-81
2022/12/18 07:42:36;;;;;;;;;;;;;;;5.05;75.97;102379.31;4924773;29;19919;-82
2022/12/18 07:45:21;;;;;;;;;;;;;;;5.04;76.73;102384.94;4938509;28;19919;-81
2022/12/18 07:48:05;;;;;;;;;;;;;;;5.21;75.76;102388.53;4936251;29;19918;-81
2022/12/18 07:50:50;;;;;;;;;;;;;;;5.35;75.48;102395.28;4944558;29;19926;-81
2022/12/18 07:53:35;;;;;;;;;;;;;;;5.13;76.08;102395.09;4961667;28;19919;-82
2022/12/18 07:56:20;;;;;;;;;;;;;;;5.21;76.33;102404.72;4950393;28;19922;-80
2022/12/18 07:59:05;;;;;;;;;;;;;;;5.28;76.70;102408.13;4935131;29;19918;-79
2022/12/18 08:01:49;;;;;;;;;;;;;;;5.60;76.09;102424.66;4945540;29;19926;-80
2022/12/18 08:04:33;;;;;;;;;;;;;;;6.11;74.15;102431.03;4947301;29;19919;-80
2022/12/18 08:07:18;;;;;;;;;;;;;;;5.90;73.79;102429.84;4945659;29;19918;-80
2022/12/18 08:10:02;;;;;;;;;;;;;;;5.85;74.54;102435.94;4938465;29;19919;-81
2022/12/18 08:12:50;;;;;;;;;;;;;;;5.94;74.52;102447.22;4934018;29;19919;-80
2022/12/18 08:15:35;;;;;;;;;;;;;;;5.80;75.20;102449.34;4935806;29;19919;-80
2022/12/18 08:18:19;;;;;;;;;;;;;;;5.96;74.56;102448.59;4955125;28;19934;-80
2022/12/18 08:21:27;;;;;;;;;;;;;;;6.08;74.41;102453.13;4941806;28;19923;-79
2022/12/18 08:24:11;;;;;;;;;;;;;;;6.15;74.10;102462.72;4951191;28;19919;-79
2022/12/18 08:26:57;;;;;;;;;;;;;;;6.13;74.07;102469.44;4943686;29;19919;-79
2022/12/18 08:29:41;;;;;;;;;;;;;;;6.13;74.12;102464.84;4941615;29;20404;-79
2022/12/18 08:32:26;;;;;;;;;;;;;;;6.27;74.40;102476.16;4944539;29;20324;-79
2022/12/18 08:35:11;;;;;;;;;;;;;;;6.21;74.63;102475.25;4942411;29;19919;-79
2022/12/18 08:37:56;;;;;;;;;;;;;;;6.21;74.78;102477.94;4953832;28;19922;-78
2022/12/18 08:40:40;;;;;;;;;;;;;;;6.20;75.00;102484.41;4946241;29;19927;-79
2022/12/18 08:46:32;;;;;;;;;;;;;;;6.15;74.87;102491.59;4945047;28;20401;-79
2022/12/18 08:49:16;;;;;;;;;;;;;;;6.11;75.30;102493.16;4938442;29;19919;-79
2022/12/18 08:52:02;;;;;;;;;;;;;;;6.41;74.60;102501.81;4937823;29;20392;-79
2022/12/18 08:54:46;;;;;;;;;;;;;;;6.27;74.81;102504.00;4938592;29;19919;-79
2022/12/18 08:57:31;;;;;;;;;;;;;;;6.30;75.05;102505.38;4937253;29;19919;-79
2022/12/18 09:00:15;;;;;;;;;;;;;;;6.33;73.98;102504.91;4938944;29;19922;-81
2022/12/18 09:03:01;;;;;;;;;;;;;;;7.12;72.88;102509.19;4956627;29;19922;-81
2022/12/18 09:05:45;;;;;;;;;;;;;;;7.48;70.81;102513.22;4959420;28;20324;-80
2022/12/18 09:08:30;;;;;;;;;;;;;;;7.76;70.08;102524.97;4963196;29;19927;-79
2022/12/18 09:11:23;;;;;;;;;;;;;;;7.97;69.37;102516.84;4953074;29;19918;-79
2022/12/18 09:14:08;;;;;;;;;;;;;;;8.10;68.79;102526.44;4956724;29;19918;-81
2022/12/18 09:16:53;;;;;;;;;;;;;;;8.10;68.56;102519.16;4957511;28;19923;-81
2022/12/18 09:19:37;;;;;;;;;;;;;;;8.21;68.42;102522.78;4951342;29;20307;-82
2022/12/18 09:22:22;;;;;;;;;;;;;;;8.42;66.91;102521.13;4962808;29;19919;-82
2022/12/18 09:25:07;;;;;;;;;;;;;;;8.63;66.01;102516.72;4950708;29;19918;-84
2022/12/18 09:27:52;;;;;;;;;;;;;;;8.75;65.44;102515.47;4951170;29;19918;-83
2022/12/18 09:30:40;;;;;;;;;;;;;;;8.71;64.77;102516.22;4952063;29;19918;-83
2022/12/18 09:33:25;;;;;;;;;;;;;;;8.77;64.02;102521.44;4949960;29;19918;-82
2022/12/18 09:36:11;;;;;;;;;;;;;;;8.75;63.07;102525.47;4949700;29;19923;-81
2022/12/18 09:50:39;;;;;;;;;;;;;;;8.97;60.42;102515.38;5055787;28;19918;-78
2022/12/18 09:53:27;;;;;;;;;;;;;;;9.02;59.86;102507.25;5058975;22;20400;-80
2022/12/18 09:56:14;;;;;;;;;;;;;;;9.03;59.78;102508.91;5069062;28;19927;-81
2022/12/18 09:59:00;;;;;;;;;;;;;;;9.14;59.70;102520.66;5081039;28;20418;-79
2022/12/18 10:01:45;;;;;;;;;;;;;;;9.13;59.81;102514.41;5065491;28;19917;-78
2022/12/18 10:04:31;;;;;;;;;;;;;;;9.21;57.95;102510.38;5052795;28;19917;-77
2022/12/18 10:07:28;;;;;;;;;;;;;;;9.19;58.35;102507.94;5052382;28;19917;-76
2022/12/18 10:10:24;;;;;;;;;;;;;;;9.36;57.72;102505.84;5045539;28;19918;-77
2022/12/18 10:13:27;;;;;;;;;;;;;;;9.33;58.64;102495.53;5044677;28;19917;-78
2022/12/18 10:16:31;;;;;;;;;;;;;;;9.37;59.04;102491.19;5043727;28;19917;-75
2022/12/18 10:19:19;;;;;;;;;;;;;;;9.51;59.00;102491.53;5048597;28;19925;-77
2022/12/18 10:22:15;;;;;;;;;;;;;;;9.55;57.52;102494.56;5050409;28;19917;-76
2022/12/18 10:25:05;;;;;;;;;;;;;;;9.62;57.66;102495.09;5040820;28;20302;-77
2022/12/18 10:27:53;;;;;;;;;;;;;;;9.76;57.47;102496.25;5036841;28;20349;-75
2022/12/18 10:30:38;;;;;;;;;;;;;;;9.64;57.78;102495.69;5035778;28;19917;-79
2022/12/18 10:33:23;;;;;;;;;;;;;;;9.85;58.01;102500.13;5042572;28;19917;-79
2022/12/18 10:36:08;;;;;;;;;;;;;;;9.83;58.21;102497.66;5034178;28;19921;-79
2022/12/18 10:38:53;;;;;;;;;;;;;;;9.70;58.19;102500.84;5036995;28;19921;-80
2022/12/18 10:41:38;;;;;;;;;;;;;;;9.66;58.25;102505.19;5041673;28;19916;-78
2022/12/18 10:44:23;;;;;;;;;;;;;;;9.72;57.29;102495.97;5038019;28;19921;-79
2022/12/18 10:47:12;;;;;;;;;;;;;;;9.65;58.01;102500.81;5045703;28;20299;-79
2022/12/18 10:49:56;;;;;;;;;;;;;;;9.62;58.49;102504.09;5036777;28;19917;-79
2022/12/18 10:52:41;;;;;;;;;;;;;;;9.73;58.93;102492.19;5039032;28;19917;-77
2022/12/18 10:55:39;;;;;;;;;;;;;;;9.87;58.20;102497.94;5040536;28;20301;-77
2022/12/18 10:58:25;;;;;;;;;;;;;;;10.00;58.20;102493.91;5035986;28;19925;-78
2022/12/18 11:01:17;;;;;;;;;;;;;;;9.83;58.89;102496.84;5020960;28;19916;-79
2022/12/18 11:04:07;;;;;;;;;;;;;;;9.59;59.68;102495.66;5026845;28;19917;-78
2022/12/18 11:06:53;;;;;;;;;;;;;;;9.51;60.03;102490.72;5019072;28;19917;-79
2022/12/18 11:09:38;;;;;;;;;;;;;;;9.26;60.32;102489.50;5032771;28;19917;-82
2022/12/18 11:12:23;;;;;;;;;;;;;;;9.26;60.57;102484.06;5034370;28;19917;-80
2022/12/18 11:15:15;;;;;;;;;;;;;;;9.32;62.21;102477.59;5025579;28;19917;-75
2022/12/18 11:17:59;;;;;;;;;;;;;;;9.38;61.43;102479.25;5027455;28;20301;-76
2022/12/18 11:20:50;;;;;;;;;;;;;;;9.50;62.20;102483.66;5027848;28;19922;-76
2022/12/18 11:23:36;;;;;;;;;;;;;;;9.50;61.83;102481.75;5025634;28;19917;-77
2022/12/18 11:26:21;;;;;;;;;;;;;;;9.44;62.51;102486.34;5027432;28;19917;-77
2022/12/18 11:29:10;;;;;;;;;;;;;;;9.52;62.26;102468.72;5029812;28;19921;-77
2022/12/18 11:32:24;;;;;;;;;;;;;;;9.53;61.38;102470.38;5034751;28;19917;-79
2022/12/18 11:35:08;;;;;;;;;;;;;;;9.69;61.09;102479.41;5043782;28;20392;-76
2022/12/18 11:37:57;;;;;;;;;;;;;;;9.72;61.33;102468.81;5029460;28;19917;-76
2022/12/18 11:40:44;;;;;;;;;;;;;;;9.78;61.93;102470.47;5025664;28;20328;-77
2022/12/18 11:43:31;;;;;;;;;;;;;;;9.90;61.71;102469.41;5024172;28;19921;-77
2022/12/18 11:46:25;;;;;;;;;;;;;;;9.91;60.19;102460.97;5027826;28;19921;-79
2022/12/18 11:49:17;;;;;;;;;;;;;;;9.87;60.03;102455.28;5026475;28;19917;-76
2022/12/18 11:52:01;;;;;;;;;;;;;;;9.91;59.90;102465.59;5029961;28;19917;-76
2022/12/18 11:54:45;;;;;;;;;;;;;;;9.96;58.80;102465.59;5031950;28;19921;-76
2022/12/18 11:57:34;;;;;;;;;;;;;;;9.96;58.29;102462.88;5035593;28;19917;-76
2022/12/18 12:00:20;;;;;;;;;;;;;;;10.03;58.29;102453.41;5018638;28;20392;-79
2022/12/18 12:03:14;;;;;;;;;;;;;;;9.95;58.56;102451.22;5023232;28;19922;-78
2022/12/18 12:06:06;;;;;;;;;;;;;;;9.86;58.54;102458.25;5031641;28;19917;-79
2022/12/18 12:08:54;;;;;;;;;;;;;;;9.94;58.25;102451.50;5031151;28;19917;-77
2022/12/18 12:11:51;;;;;;;;;;;;;;;9.90;58.52;102456.66;5025227;28;19917;-76
2022/12/18 12:14:38;;;;;;;;;;;;;;;9.88;58.00;102466.97;5025464;28;19917;-77
2022/12/18 12:17:25;;;;;;;;;;;;;;;9.94;58.14;102456.94;5025191;28;20382;-78
2022/12/18 12:20:29;;;;;;;;;;;;;;;10.04;58.16;102465.09;5024155;28;19933;-76
2022/12/18 12:23:13;;;;;;;;;;;;;;;10.05;57.31;102456.69;5040087;28;19917;-78
2022/12/18 12:26:06;;;;;;;;;;;;;;;10.07;57.15;102451.78;5023035;28;19918;-76
2022/12/18 12:28:54;;;;;;;;;;;;;;;10.14;55.11;102454.25;5035075;28;19917;-78
2022/12/18 12:31:41;;;;;;;;;;;;;;;10.14;53.16;102452.34;5027592;28;19917;-76
2022/12/18 12:34:41;;;;;;;;;;;;;;;10.21;52.32;102461.06;5031435;28;19921;-76
2022/12/18 12:37:44;;;;;;;;;;;;;;;10.17;53.82;102451.81;5039395;28;19921;-77
2022/12/18 12:40:31;;;;;;;;;;;;;;;10.25;53.75;102445.06;5022286;28;19921;-78
2022/12/18 12:43:22;;;;;;;;;;;;;;;10.27;54.38;102449.13;5032718;28;19925;-78
2022/12/18 12:46:09;;;;;;;;;;;;;;;10.35;54.19;102445.06;5031687;28;19916;-77
2022/12/18 12:49:00;;;;;;;;;;;;;;;10.31;53.68;102443.94;5024498;28;19917;-78
2022/12/18 12:51:47;;;;;;;;;;;;;;;10.51;52.95;102445.88;5034751;28;19917;-76
2022/12/18 12:54:32;;;;;;;;;;;;;;;10.57;53.93;102444.78;5023801;28;19917;-77
2022/12/18 12:57:30;;;;;;;;;;;;;;;10.51;53.21;102445.88;5027326;28;19917;-78
2022/12/18 13:00:16;;;;;;;;;;;;;;;10.72;52.10;102439.31;5027692;28;19921;-78
2022/12/18 13:03:08;;;;;;;;;;;;;;;10.75;51.39;102436.06;5023335;28;19917;-79
2022/12/18 13:06:00;;;;;;;;;;;;;;;10.86;51.17;102434.16;5025979;28;19917;-78
2022/12/18 13:08:56;;;;;;;;;;;;;;;10.93;50.41;102435.47;5029955;28;19917;-78
2022/12/18 13:14:44;;;;;;;;;;;;;;;11.12;50.46;102428.34;5025110;28;19917;-78
2022/12/18 13:17:29;;;;;;;;;;;;;;;11.00;50.30;102422.41;5025477;28;20382;-78
2022/12/18 13:20:15;;;;;;;;;;;;;;;11.24;50.20;102421.78;5026118;28;19921;-79
2022/12/18 13:22:59;;;;;;;;;;;;;;;11.39;49.54;102419.00;5028102;28;19917;-79
2022/12/18 13:25:43;;;;;;;;;;;;;;;11.41;49.58;102420.38;5027537;28;19917;-79
2022/12/18 13:28:46;;;;;;;;;;;;;;;11.52;49.26;102416.53;5027395;28;19918;-79
2022/12/18 13:31:40;;;;;;;;;;;;;;;11.54;49.33;102410.78;5034437;28;19917;-77
2022/12/18 13:34:26;;;;;;;;;;;;;;;11.65;48.78;102411.53;5033107;28;19917;-77
2022/12/18 13:37:29;;;;;;;;;;;;;;;11.65;49.54;102417.81;5032365;28;19943;-77
2022/12/18 13:40:32;;;;;;;;;;;;;;;11.61;49.61;102421.38;5035401;28;20377;-79
2022/12/18 13:43:20;;;;;;;;;;;;;;;11.67;49.54;102422.97;5046975;28;19917;-80
2022/12/18 13:46:22;;;;;;;;;;;;;;;11.64;49.58;102423.53;5051740;28;19920;-79
2022/12/18 13:49:13;;;;;;;;;;;;;;;11.61;49.69;102424.09;5039047;28;20397;-79
2022/12/18 13:51:58;;;;;;;;;;;;;;;11.63;50.66;102430.88;5026070;28;20288;-80
2022/12/18 13:54:42;;;;;;;;;;;;;;;11.80;49.72;102428.66;5021209;28;20388;-80
2022/12/18 13:57:29;;;;;;;;;;;;;;;11.79;49.55;102431.66;5024082;28;19917;-80
2022/12/18 14:00:17;;;;;;;;;;;;;;;11.75;48.95;102428.69;5025600;28;19921;-80
2022/12/18 14:03:01;;;;;;;;;;;;;;;11.89;48.93;102426.94;5036443;28;19917;-80
2022/12/18 14:05:48;;;;;;;;;;;;;;;11.68;50.55;102425.44;5034054;28;19925;-80
2022/12/18 14:08:35;;;;;;;;;;;;;;;11.55;50.27;102426.03;5025214;28;20301;-81
2022/12/18 14:11:22;;;;;;;;;;;;;;;11.86;49.41;102421.25;5030721;28;19917;-80
2022/12/18 14:14:07;;;;;;;;;;;;;;;12.02;48.67;102424.72;5029442;28;19921;-79
2022/12/18 14:16:52;;;;;;;;;;;;;;;12.09;48.23;102420.56;5031977;28;19917;-79
2022/12/18 14:19:36;;;;;;;;;;;;;;;12.07;48.17;102424.69;5041551;28;20405;-79
2022/12/18 14:22:29;;;;;;;;;;;;;;;11.94;48.98;102424.19;5034219;28;19917;-78
2022/12/18 14:25:15;;;;;;;;;;;;;;;11.70;50.59;102417.78;5017699;28;19917;-80
2022/12/18 14:28:06;;;;;;;;;;;;;;;11.50;51.22;102415.16;5048579;28;19917;-79
2022/12/18 14:30:50;;;;;;;;;;;;;;;11.33;51.60;102414.66;5031638;28;20297;-79
2022/12/18 14:33:37;;;;;;;;;;;;;;;11.47;51.52;102416.53;5035928;28;19917;-80
2022/12/18 14:36:23;;;;;;;;;;;;;;;11.39;52.13;102408.13;5039949;28;20397;-79
2022/12/18 14:39:16;;;;;;;;;;;;;;;11.29;52.52;102408.16;5036375;28;19921;-80
2022/12/18 14:42:00;;;;;;;;;;;;;;;11.31;52.46;102414.16;5035997;28;19917;-79
2022/12/18 14:44:45;;;;;;;;;;;;;;;11.18;52.96;102420.16;5037202;28;19917;-78
2022/12/18 14:47:29;;;;;;;;;;;;;;;11.22;53.05;102427.53;5036801;28;19917;-80
2022/12/18 14:50:14;;;;;;;;;;;;;;;11.03;53.99;102429.19;5031358;28;19917;-79